Time;durP1;ratioP1;P1;durP2;ratioP2;P2;SDS_P1;SDS_P2;PMS_P1;PMS_P2;Temp;Humidity;BMP_temperature;BMP_pressure;BME280_temperature;BME280_humidity;BME280_pressure;Samples;Min_cycle;Max_cycle;Signal;HPM_P1;HPM_P2
2021/03/25 00:01:42;;;;;;;63.78;34.35;;;;;;;6.52;100.00;102111.78;5059893;28;20091;-76
2021/03/25 00:04:08;;;;;;;65.00;31.65;;;;;;;6.52;100.00;102109.16;5043742;28;20024;-76
2021/03/25 00:06:39;;;;;;;73.13;34.25;;;;;;;6.58;100.00;102108.28;5066364;28;20078;-76
2021/03/25 00:09:11;;;;;;;83.88;33.50;;;;;;;6.56;100.00;102105.63;5027608;28;20393;-76
2021/03/25 00:11:36;;;;;;;64.03;31.92;;;;;;;6.53;100.00;102104.81;5062665;28;20098;-77
2021/03/25 00:14:02;;;;;;;66.28;33.38;;;;;;;6.54;100.00;102109.19;5062013;28;20060;-76
2021/03/25 00:16:28;;;;;;;69.68;34.45;;;;;;;6.52;100.00;102106.53;5060304;28;20029;-77
2021/03/25 00:18:53;;;;;;;68.85;34.28;;;;;;;6.49;100.00;102106.59;5062615;28;20041;-76
2021/03/25 00:21:19;;;;;;;76.93;34.90;;;;;;;6.44;100.00;102101.34;5059881;28;20060;-77
2021/03/25 00:23:44;;;;;;;66.80;33.15;;;;;;;6.36;100.00;102104.91;5068543;28;20032;-77
2021/03/25 00:26:09;;;;;;;71.28;35.75;;;;;;;6.43;100.00;102109.25;5071523;28;20111;-76
2021/03/25 00:28:34;;;;;;;79.47;36.67;;;;;;;6.33;100.00;102100.56;5051147;28;20029;-76
2021/03/25 00:31:00;;;;;;;77.47;35.25;;;;;;;6.30;100.00;102102.34;5049589;28;20032;-76
2021/03/25 00:33:26;;;;;;;62.72;32.97;;;;;;;6.25;100.00;102096.25;5065833;28;20453;-76
2021/03/25 00:35:51;;;;;;;68.80;34.50;;;;;;;6.18;100.00;102095.41;5070149;28;20028;-76
2021/03/25 00:38:18;;;;;;;63.92;35.40;;;;;;;6.16;100.00;102089.28;5067472;28;20056;-76
2021/03/25 00:40:45;;;;;;;78.43;37.00;;;;;;;6.17;100.00;102085.78;5066552;28;20099;-76
2021/03/25 00:43:12;;;;;;;66.47;37.83;;;;;;;6.19;100.00;102095.41;5069307;28;20037;-76
2021/03/25 00:45:43;;;;;;;70.18;35.38;;;;;;;6.11;100.00;102091.06;5051471;28;20036;-76
2021/03/25 00:48:10;;;;;;;76.60;38.30;;;;;;;6.21;100.00;102090.13;5066344;28;20029;-77
2021/03/25 00:50:40;;;;;;;79.43;38.22;;;;;;;6.22;100.00;102089.25;5068787;28;20024;-77
2021/03/25 00:53:08;;;;;;;64.32;31.60;;;;;;;6.05;100.00;102083.25;5070132;28;20033;-77
2021/03/25 00:55:33;;;;;;;64.00;35.58;;;;;;;6.01;100.00;102076.25;5065086;28;20034;-77
2021/03/25 00:57:58;;;;;;;74.32;38.42;;;;;;;6.14;100.00;102084.06;5072677;28;20036;-77
2021/03/25 01:00:37;;;;;;;79.10;40.72;;;;;;;6.00;100.00;102082.41;5065257;28;20040;-77
2021/03/25 01:03:02;;;;;;;87.57;40.90;;;;;;;5.96;100.00;102087.66;5055482;28;20049;-76
2021/03/25 01:05:29;;;;;;;82.35;39.17;;;;;;;5.86;100.00;102083.31;5042155;28;20089;-77
2021/03/25 01:07:54;;;;;;;82.60;40.13;;;;;;;5.84;100.00;102085.06;5063535;28;20139;-76
2021/03/25 01:10:28;;;;;;;72.45;36.85;;;;;;;5.79;100.00;102078.97;5067009;28;20054;-76
2021/03/25 01:12:54;;;;;;;82.60;41.03;;;;;;;5.74;100.00;102067.63;5063956;28;20060;-76
2021/03/25 01:15:19;;;;;;;84.00;42.25;;;;;;;5.82;100.00;102073.69;5065435;28;20055;-77
2021/03/25 01:17:54;;;;;;;81.85;43.42;;;;;;;5.80;100.00;102079.84;5061851;28;20032;-76
2021/03/25 01:20:29;;;;;;;79.90;40.38;;;;;;;5.75;100.00;102074.63;5063548;28;20132;-76
2021/03/25 01:22:55;;;;;;;84.75;41.53;;;;;;;5.69;100.00;102077.28;5057408;28;20474;-76
2021/03/25 01:25:21;;;;;;;77.97;42.63;;;;;;;5.69;100.00;102067.66;5055197;28;20105;-76
2021/03/25 01:27:47;;;;;;;83.95;42.53;;;;;;;5.63;100.00;102057.19;5057942;28;20033;-75
2021/03/25 01:30:13;;;;;;;80.03;37.88;;;;;;;5.59;100.00;102065.94;5057780;28;20441;-75
2021/03/25 01:32:38;;;;;;;84.18;37.20;;;;;;;5.53;100.00;102062.50;5055627;28;20025;-75
2021/03/25 01:35:09;;;;;;;85.78;40.75;;;;;;;5.48;100.00;102059.88;5060130;28;20489;-75
2021/03/25 01:37:38;;;;;;;85.25;39.83;;;;;;;5.40;100.00;102062.53;5042739;28;20377;-75
2021/03/25 01:40:16;;;;;;;86.53;39.08;;;;;;;5.34;100.00;102062.56;5058053;28;20036;-75
2021/03/25 01:42:45;;;;;;;88.53;43.58;;;;;;;5.27;100.00;102066.09;5060577;28;20043;-75
2021/03/25 01:45:28;;;;;;;72.43;33.55;;;;;;;5.28;100.00;102066.94;5056333;28;20090;-75
2021/03/25 01:47:54;;;;;;;96.32;44.42;;;;;;;5.20;100.00;102061.72;5059985;28;20104;-75
2021/03/25 01:50:20;;;;;;;98.43;45.78;;;;;;;5.26;100.00;102056.44;5059112;28;20032;-75
2021/03/25 01:52:58;;;;;;;81.50;39.45;;;;;;;5.13;100.00;102057.38;5057911;28;20040;-75
2021/03/25 01:55:29;;;;;;;87.70;43.25;;;;;;;5.07;100.00;102054.75;5061293;28;20020;-75
2021/03/25 01:58:03;;;;;;;106.38;48.72;;;;;;;5.10;100.00;102058.25;5043353;28;20013;-75
2021/03/25 02:00:52;;;;;;;100.47;45.30;;;;;;;5.03;100.00;102053.91;5057421;28;20031;-76
2021/03/25 02:03:33;;;;;;;88.47;40.65;;;;;;;5.02;100.00;102059.13;5052593;28;20040;-75
2021/03/25 02:06:04;;;;;;;96.35;46.80;;;;;;;4.99;100.00;102054.78;5059627;28;20032;-75
2021/03/25 02:08:48;;;;;;;87.75;39.03;;;;;;;4.98;100.00;102060.03;5038181;28;20068;-75
2021/03/25 02:11:25;;;;;;;71.15;35.10;;;;;;;4.98;100.00;102054.78;5061794;28;20032;-76
2021/03/25 02:14:13;;;;;;;91.22;41.45;;;;;;;4.99;100.00;102060.03;5046794;28;20136;-76
2021/03/25 02:16:51;;;;;;;73.78;38.75;;;;;;;5.01;100.00;102065.25;5061196;28;20032;-75
2021/03/25 02:19:47;;;;;;;82.22;40.83;;;;;;;5.13;100.00;102066.13;5056882;28;20047;-76
2021/03/25 02:22:50;;;;;;;83.50;40.28;;;;;;;5.24;100.00;102058.22;5061798;28;20064;-75
2021/03/25 02:25:20;;;;;;;89.70;41.45;;;;;;;5.35;100.00;102051.19;5069648;28;20099;-75
2021/03/25 02:28:10;;;;;;;93.93;46.00;;;;;;;5.48;100.00;102052.03;5066916;28;20119;-75
2021/03/25 02:30:46;;;;;;;99.68;48.00;;;;;;;5.61;100.00;102056.31;5061422;28;20144;-75
2021/03/25 02:33:16;;;;;;;;;;;;;;;5.71;100.00;102041.41;5059968;28;20064;-76
2021/03/25 02:35:51;;;;;;;101.07;44.88;;;;;;;5.75;100.00;102048.38;5059560;28;19912;-76
2021/03/25 02:38:27;;;;;;;95.78;47.35;;;;;;;5.94;100.00;102050.06;5063712;28;20035;-75
2021/03/25 02:40:57;;;;;;;93.05;44.22;;;;;;;5.91;100.00;102047.44;5065492;28;20033;-75
2021/03/25 02:43:37;;;;;;;93.65;44.83;;;;;;;5.97;100.00;102049.16;5065236;28;20074;-76
2021/03/25 02:46:11;;;;;;;86.13;42.60;;;;;;;6.10;100.00;102050.84;5064967;28;20137;-76
2021/03/25 02:48:41;;;;;;;82.97;43.13;;;;;;;6.13;100.00;102048.19;5067740;28;20616;-76
2021/03/25 02:51:14;;;;;;;78.53;37.28;;;;;;;6.13;100.00;102052.56;5067243;28;20036;-76
2021/03/25 02:53:45;;;;;;;92.65;43.72;;;;;;;6.19;100.00;102066.53;5063655;28;20024;-76
2021/03/25 02:56:23;;;;;;;84.55;40.65;;;;;;;6.16;100.00;102050.78;5062839;28;20037;-75
2021/03/25 02:58:59;;;;;;;93.05;44.10;;;;;;;6.14;100.00;102047.31;5057834;28;20036;-76
2021/03/25 03:01:24;;;;;;;97.95;41.75;;;;;;;6.08;100.00;102046.50;5060168;28;20107;-76
2021/03/25 03:04:00;;;;;;;81.88;38.83;;;;;;;6.14;100.00;102049.06;5067048;28;20454;-76
2021/03/25 03:06:31;;;;;;;82.00;40.55;;;;;;;6.19;100.00;102053.41;5064311;28;20052;-76
2021/03/25 03:08:57;;;;;;;80.25;41.05;;;;;;;6.23;100.00;102060.38;5073396;28;20029;-76
2021/03/25 03:11:29;;;;;;;87.50;40.25;;;;;;;6.18;100.00;102050.78;5061558;28;20032;-76
2021/03/25 03:14:00;;;;;;;83.40;39.28;;;;;;;6.25;100.00;102047.22;5063463;28;20037;-76
2021/03/25 03:16:39;;;;;;;67.90;37.25;;;;;;;6.18;100.00;102035.91;5047572;28;20067;-76
2021/03/25 03:19:11;;;;;;;81.50;38.08;;;;;;;6.20;100.00;102042.00;5068370;28;20497;-75
2021/03/25 03:21:47;;;;;;;71.95;35.60;;;;;;;6.20;100.00;102035.88;5061844;28;20044;-76
2021/03/25 03:24:13;;;;;;;77.10;38.78;;;;;;;6.21;100.00;102041.13;5062855;28;20029;-76
2021/03/25 03:26:50;;;;;;;80.38;39.22;;;;;;;6.30;100.00;102036.69;5062030;28;20122;-76
2021/03/25 03:29:17;;;;;;;88.18;40.88;;;;;;;6.37;100.00;102041.88;5064409;28;20036;-76
2021/03/25 03:32:04;;;;;;;82.55;38.55;;;;;;;6.35;100.00;102037.53;5062053;28;20094;-77
2021/03/25 03:34:34;;;;;;;76.65;36.55;;;;;;;6.35;100.00;102033.16;5062035;28;20103;-76
2021/03/25 03:37:06;;;;;;;63.40;33.88;;;;;;;6.35;100.00;102035.78;5043585;28;20508;-76
2021/03/25 03:39:34;;;;;;;78.93;37.72;;;;;;;6.40;100.00;102026.09;5065677;28;20097;-76
2021/03/25 03:42:17;;;;;;;62.92;32.08;;;;;;;6.38;100.00;102025.25;5062177;28;20397;-77
2021/03/25 03:44:45;;;;;;;70.40;35.83;;;;;;;6.49;100.00;102030.41;5062530;28;20036;-76
2021/03/25 03:47:13;;;;;;;71.72;38.40;;;;;;;6.50;100.00;102024.28;5062347;28;20033;-76
2021/03/25 03:49:45;;;;;;;73.20;36.38;;;;;;;6.44;100.00;102026.97;5056944;28;20033;-77
2021/03/25 03:52:21;;;;;;;67.43;36.70;;;;;;;6.51;100.00;102033.03;5061245;28;20017;-76
2021/03/25 03:54:50;;;;;;;73.03;37.05;;;;;;;6.47;100.00;102029.53;5065024;28;20032;-76
2021/03/25 03:57:37;;;;;;;76.15;36.38;;;;;;;6.44;100.00;102037.47;5043864;28;20033;-76
2021/03/25 04:00:18;;;;;;;77.18;34.10;;;;;;;6.42;100.00;102036.59;5059781;28;20025;-76
2021/03/25 04:03:15;;;;;;;66.95;36.20;;;;;;;6.51;100.00;102022.50;5060751;28;20534;-76
2021/03/25 04:05:44;;;;;;;60.53;31.00;;;;;;;6.43;100.00;102019.97;5000324;28;20052;-76
2021/03/25 04:08:14;;;;;;;84.25;37.40;;;;;;;6.40;100.00;102023.47;5058671;28;20625;-77
2021/03/25 04:10:43;;;;;;;68.78;37.00;;;;;;;6.47;100.00;102019.91;5064919;28;20092;-77
2021/03/25 04:13:14;;;;;;;71.93;36.58;;;;;;;6.41;100.00;102025.22;5062657;28;20043;-76
2021/03/25 04:15:45;;;;;;;71.95;38.03;;;;;;;6.31;100.00;102022.69;5063058;28;20055;-76
2021/03/25 04:18:17;;;;;;;57.25;31.27;;;;;;;6.27;100.00;102013.94;5044490;28;20040;-77
2021/03/25 04:20:50;;;;;;;49.88;28.02;;;;;;;6.25;100.00;102010.47;5058589;28;20461;-76
2021/03/25 04:23:19;;;;;;;69.57;35.65;;;;;;;6.30;100.00;102007.81;5061606;28;20071;-76
2021/03/25 04:25:51;;;;;;;69.28;36.28;;;;;;;6.36;100.00;102013.00;5066669;28;20058;-76
2021/03/25 04:28:27;;;;;;;67.32;36.22;;;;;;;6.30;100.00;102015.69;5056456;28;20065;-76
2021/03/25 04:30:54;;;;;;;72.63;36.33;;;;;;;6.31;100.00;102014.81;5064445;28;20028;-76
2021/03/25 04:33:22;;;;;;;69.55;36.08;;;;;;;6.33;100.00;102016.53;5055968;28;20520;-76
2021/03/25 04:35:49;;;;;;;77.53;38.85;;;;;;;6.42;100.00;102019.06;5055065;28;20050;-76
2021/03/25 04:38:17;;;;;;;91.75;39.13;;;;;;;6.40;100.00;102014.72;5064814;28;20028;-75
2021/03/25 04:40:44;;;;;;;74.95;36.28;;;;;;;6.42;100.00;102021.69;5062393;28;20024;-76
2021/03/25 04:43:10;;;;;;;70.80;37.85;;;;;;;6.37;100.00;102018.22;5040097;28;20167;-76
2021/03/25 04:46:14;;;;;;;85.65;39.33;;;;;;;6.35;100.00;102017.41;5057175;28;20043;-76
2021/03/25 04:48:43;;;;;;;72.68;37.72;;;;;;;6.38;100.00;102012.13;5014491;28;20108;-75
2021/03/25 04:51:18;;;;;;;63.10;35.75;;;;;;;6.39;100.00;102000.72;5059188;28;20028;-76
2021/03/25 04:53:45;;;;;;;84.22;35.28;;;;;;;6.35;100.00;101998.13;5043526;28;20029;-75
2021/03/25 04:56:15;;;;;;;65.85;34.90;;;;;;;6.32;100.00;101993.78;5064572;28;20044;-75
2021/03/25 04:58:51;;;;;;;61.05;31.02;;;;;;;6.31;100.00;101985.91;5058201;28;20025;-76
2021/03/25 05:01:20;;;;;;;69.40;36.53;;;;;;;6.36;100.00;101989.38;5057329;28;20090;-75
2021/03/25 05:03:49;;;;;;;69.93;37.92;;;;;;;6.32;100.00;101985.91;5058696;28;20716;-75
2021/03/25 05:06:27;;;;;;;73.53;37.42;;;;;;;6.38;100.00;102000.75;5057706;28;20035;-76
2021/03/25 05:08:54;;;;;;;75.15;38.15;;;;;;;6.49;100.00;102005.03;5062885;28;20036;-74
2021/03/25 05:11:26;;;;;;;68.90;33.72;;;;;;;6.44;100.00;102000.69;5045943;28;20037;-75
2021/03/25 05:13:54;;;;;;;72.22;37.85;;;;;;;6.42;100.00;102005.94;5060313;28;20394;-75
2021/03/25 05:16:43;;;;;;;81.68;37.22;;;;;;;6.40;100.00;102007.72;5067612;28;20339;-75
2021/03/25 05:19:22;;;;;;;79.63;38.63;;;;;;;6.43;100.00;102010.34;5063220;28;20063;-75
2021/03/25 05:21:59;;;;;;;79.72;37.40;;;;;;;6.40;100.00;102010.34;5059570;28;20071;-75
2021/03/25 05:24:27;;;;;;;80.28;40.10;;;;;;;6.47;100.00;102012.03;5069144;28;20829;-76
2021/03/25 05:27:00;;;;;;;79.07;37.80;;;;;;;6.44;100.00;102017.31;5068822;28;20033;-75
2021/03/25 05:29:27;;;;;;;77.25;38.22;;;;;;;6.43;100.00;102014.72;5063772;28;20029;-76
2021/03/25 05:31:54;;;;;;;66.15;38.42;;;;;;;6.48;100.00;102016.41;5065314;28;20392;-76
2021/03/25 05:34:21;;;;;;;68.68;37.67;;;;;;;6.38;100.00;102022.63;5071570;28;20043;-75
2021/03/25 05:36:48;;;;;;;72.13;36.15;;;;;;;6.32;100.00;102016.53;5064636;28;20769;-75
2021/03/25 05:39:13;;;;;;;75.75;38.72;;;;;;;6.26;100.00;102009.59;5027404;28;20132;-75
2021/03/25 05:41:50;;;;;;;77.18;39.50;;;;;;;6.20;100.00;102007.00;5073086;28;20108;-74
2021/03/25 05:44:32;;;;;;;76.93;39.78;;;;;;;6.32;100.00;102006.03;5066932;28;20469;-74
2021/03/25 05:47:37;;;;;;;75.97;35.50;;;;;;;6.15;100.00;102012.28;5068279;28;20096;-76
2021/03/25 05:50:14;;;;;;;66.47;36.15;;;;;;;6.01;100.00;102010.66;5026181;28;20048;-75
2021/03/25 05:52:39;;;;;;;81.28;40.92;;;;;;;6.00;100.00;102004.53;5044066;28;20021;-75
2021/03/25 05:55:58;;;;;;;77.70;39.57;;;;;;;5.96;100.00;102013.31;5065829;28;20028;-76
2021/03/25 05:58:36;;;;;;;87.97;41.47;;;;;;;5.82;100.00;101996.75;4986387;28;20843;-75
2021/03/25 06:01:09;;;;;;;77.82;39.25;;;;;;;5.78;100.00;102000.28;5005826;28;20079;-75
2021/03/25 06:03:35;;;;;;;69.53;33.83;;;;;;;5.71;100.00;101999.44;4989616;28;20653;-76
2021/03/25 06:06:01;;;;;;;78.80;39.92;;;;;;;5.92;100.00;102007.22;4999062;28;20046;-75
2021/03/25 06:08:52;;;;;;;82.38;42.75;;;;;;;6.01;100.00;102010.66;4991938;28;20833;-75
2021/03/25 06:11:39;;;;;;;82.65;41.47;;;;;;;6.05;100.00;102012.38;5002839;28;20049;-75
2021/03/25 06:14:14;;;;;;;80.75;41.38;;;;;;;6.01;100.00;102015.91;5006778;28;20108;-74
2021/03/25 06:17:24;;;;;;;79.40;40.38;;;;;;;6.01;100.00;102011.53;5009842;28;20042;-75
2021/03/25 06:20:27;;;;;;;73.90;39.70;;;;;;;5.99;100.00;102020.31;5004795;28;20137;-76
2021/03/25 06:23:15;;;;;;;77.70;39.92;;;;;;;5.99;100.00;102036.91;5004996;28;20118;-76
2021/03/25 06:26:08;;;;;;;86.32;42.53;;;;;;;6.00;100.00;102035.16;5003702;28;20124;-76
2021/03/25 06:28:42;;;;;;;74.47;39.45;;;;;;;6.18;100.00;102043.78;5019977;28;20044;-76
2021/03/25 06:31:16;;;;;;;75.40;39.45;;;;;;;6.31;100.00;102034.03;5060953;28;20092;-76
2021/03/25 06:33:56;;;;;;;85.32;41.03;;;;;;;6.45;100.00;102033.94;5059930;28;20039;-77
2021/03/25 06:36:41;;;;;;;72.47;35.50;;;;;;;6.59;100.00;102029.44;5039466;28;20393;-76
2021/03/25 06:39:16;;;;;;;75.95;37.33;;;;;;;6.82;100.00;102030.97;5039917;28;20025;-76
2021/03/25 06:42:01;;;;;;;74.37;36.73;;;;;;;6.89;100.00;102027.41;5060997;28;20378;-76
2021/03/25 06:44:41;;;;;;;70.65;34.35;;;;;;;6.94;100.00;102031.72;5056445;28;20284;-76
2021/03/25 06:47:19;;;;;;;64.28;35.75;;;;;;;6.97;100.00;102036.06;5059761;28;20033;-76
2021/03/25 06:49:56;;;;;;;66.15;35.28;;;;;;;7.14;100.00;102051.69;5060618;28;20035;-76
2021/03/25 06:52:26;;;;;;;65.68;34.80;;;;;;;7.17;100.00;102054.25;5055719;28;20024;-76
2021/03/25 06:54:55;;;;;;;63.45;34.92;;;;;;;7.34;100.00;102038.31;5055894;28;20166;-76
2021/03/25 06:57:22;;;;;;;66.70;33.38;;;;;;;7.44;100.00;102043.44;5058842;28;20028;-76
2021/03/25 06:59:52;;;;;;;78.45;35.30;;;;;;;7.50;100.00;102045.13;5046004;28;20087;-76
2021/03/25 07:02:22;;;;;;;82.90;34.90;;;;;;;7.61;100.00;102047.59;5067726;28;20037;-76
2021/03/25 07:04:51;;;;;;;61.65;33.33;;;;;;;7.59;100.00;102044.13;5058317;28;20119;-76
2021/03/25 07:07:39;;;;;;;54.10;32.03;;;;;;;7.60;100.00;102041.47;5059027;28;20025;-76
2021/03/25 07:10:06;;;;;;;63.63;31.83;;;;;;;7.71;100.00;102041.34;5062157;28;20078;-75
2021/03/25 07:12:35;;;;;;;60.05;31.90;;;;;;;7.78;100.00;102048.25;5035085;28;20036;-72
2021/03/25 07:15:01;;;;;;;65.43;32.15;;;;;;;7.74;100.00;102050.06;5063920;28;20032;-74
2021/03/25 07:17:41;;;;;;;56.33;33.78;;;;;;;7.78;100.00;102042.97;5054121;28;20025;-71
2021/03/25 07:20:29;;;;;;;62.08;32.13;;;;;;;7.84;100.00;102048.19;5036694;28;20050;-73
2021/03/25 07:23:13;;;;;;;63.88;32.30;;;;;;;7.86;100.00;102040.25;5060161;28;20370;-73
2021/03/25 07:25:50;;;;;;;66.40;34.00;;;;;;;7.90;100.00;102036.69;5058881;28;20031;-73
2021/03/25 07:28:19;;;;;;;59.17;32.78;;;;;;;7.91;100.00;102043.69;5061278;28;20024;-80
2021/03/25 07:30:49;;;;;;;56.38;32.75;;;;;;;7.96;100.00;102052.41;5060162;28;20044;-74
2021/03/25 07:33:21;;;;;;;57.00;31.38;;;;;;;7.96;100.00;102050.63;5044126;28;20115;-73
2021/03/25 07:35:50;;;;;;;63.30;31.27;;;;;;;8.00;100.00;102041.81;5042698;28;20028;-74
2021/03/25 07:38:29;;;;;;;58.05;31.50;;;;;;;8.11;100.00;102051.31;5043194;28;20051;-74
2021/03/25 07:41:05;;;;;;;62.03;32.80;;;;;;;8.24;100.00;102055.50;5058311;28;20029;-74
2021/03/25 07:43:46;;;;;;;;;;;;;;;8.25;100.00;102058.09;5060192;28;20037;-74
2021/03/25 07:46:41;;;;;;;60.40;30.52;;;;;;;8.33;100.00;102063.22;5064243;28;19920;-73
2021/03/25 07:49:07;;;;;;;65.90;30.85;;;;;;;8.40;100.00;102067.56;5036419;28;20071;-73
2021/03/25 07:51:46;;;;;;;57.03;31.50;;;;;;;8.57;100.00;102062.88;5060084;28;20030;-74
2021/03/25 07:54:20;;;;;;;56.72;29.83;;;;;;;8.63;100.00;102063.66;5061623;28;20036;-77
2021/03/25 07:56:58;;;;;;;55.90;29.25;;;;;;;8.65;100.00;102077.72;5063650;28;20035;-75
2021/03/25 07:59:34;;;;;;;57.85;27.65;;;;;;;8.51;100.00;102076.16;5044018;28;20028;-74
2021/03/25 08:02:00;;;;;;;52.20;29.17;;;;;;;8.57;100.00;102083.97;5057974;28;20488;-78
2021/03/25 08:04:28;;;;;;;53.22;30.10;;;;;;;8.67;100.00;102078.53;5062298;28;20028;-72
2021/03/25 08:07:04;;;;;;;57.40;31.35;;;;;;;8.67;100.00;102089.94;5063958;28;20028;-71
2021/03/25 08:09:50;;;;;;;58.72;30.77;;;;;;;8.72;100.00;102074.06;5060182;28;20040;-75
2021/03/25 08:12:30;;;;;;;58.63;31.63;;;;;;;8.71;100.00;102073.19;5059752;28;20036;-75
2021/03/25 08:15:21;;;;;;;50.63;30.48;;;;;;;8.68;100.00;102075.88;5064631;28;20032;-76
2021/03/25 08:18:08;;;;;;;55.85;28.33;;;;;;;8.69;100.00;102079.41;5058038;28;20729;-75
2021/03/25 08:20:50;;;;;;;45.08;27.35;;;;;;;8.68;100.00;102067.09;5056632;28;20067;-72
2021/03/25 08:23:48;;;;;;;65.03;28.60;;;;;;;8.82;100.00;102067.72;5051506;28;20049;-74
2021/03/25 08:26:36;;;;;;;57.92;29.98;;;;;;;8.88;100.00;102077.28;5058143;28;20603;-73
2021/03/25 08:29:27;;;;;;;55.05;29.55;;;;;;;8.77;100.00;102077.47;5048141;28;20056;-73
2021/03/25 08:32:07;;;;;;;54.15;29.45;;;;;;;8.65;100.00;102081.22;5052856;28;20025;-74
2021/03/25 08:34:48;;;;;;;51.42;28.33;;;;;;;8.54;100.00;102083.16;5053958;28;20025;-74
2021/03/25 08:37:48;;;;;;;60.92;29.92;;;;;;;8.35;100.00;102086.94;5036490;28;20116;-73
2021/03/25 08:40:19;;;;;;;47.55;28.13;;;;;;;8.27;100.00;102085.28;5051749;28;20529;-73
2021/03/25 08:42:52;;;;;;;51.00;27.80;;;;;;;8.19;100.00;102074.00;5054629;28;20390;-75
2021/03/25 08:45:26;;;;;;;48.92;29.00;;;;;;;8.29;100.00;102085.28;5051854;28;20091;-73
2021/03/25 08:48:03;;;;;;;44.72;26.92;;;;;;;8.24;100.00;102090.59;5049232;28;20024;-76
2021/03/25 08:50:34;;;;;;;42.20;26.80;;;;;;;8.19;100.00;102079.28;5050562;28;20029;-77
2021/03/25 08:53:03;;;;;;;47.20;26.92;;;;;;;8.31;100.00;102089.59;5051004;28;20043;-74
2021/03/25 08:55:33;;;;;;;48.15;28.60;;;;;;;8.36;100.00;102089.56;5049699;28;20033;-77
2021/03/25 08:58:05;;;;;;;44.67;25.98;;;;;;;8.47;100.00;102077.09;5051147;28;20040;-76
2021/03/25 09:00:37;;;;;;;34.13;23.25;;;;;;;8.68;100.00;102088.19;5047356;28;20037;-72
2021/03/25 09:03:12;;;;;;;37.85;22.77;;;;;;;8.68;100.00;102086.41;5048860;28;20043;-74
2021/03/25 09:05:53;;;;;;;36.38;22.80;;;;;;;8.71;100.00;102088.13;5051830;28;20032;-75
2021/03/25 09:08:21;;;;;;;33.15;21.55;;;;;;;8.64;100.00;102087.38;5049494;28;20033;-75
2021/03/25 09:10:51;;;;;;;32.95;22.55;;;;;;;8.56;100.00;102091.91;5052305;28;20033;-75
2021/03/25 09:13:26;;;;;;;33.22;20.85;;;;;;;8.56;100.00;102084.00;5054931;28;20057;-75
2021/03/25 09:15:55;;;;;;;33.75;21.20;;;;;;;8.43;100.00;102096.47;5054360;28;20036;-73
2021/03/25 09:18:24;;;;;;;39.03;22.67;;;;;;;8.45;100.00;102089.44;5051129;28;20412;-75
2021/03/25 09:20:54;;;;;;;40.38;23.42;;;;;;;8.44;100.00;102095.59;5053227;28;20090;-71
2021/03/25 09:23:28;;;;;;;38.50;22.88;;;;;;;8.51;100.00;102089.34;5059878;28;20044;-75
2021/03/25 09:25:53;;;;;;;48.83;24.88;;;;;;;8.55;100.00;102088.41;5057790;28;20484;-74
2021/03/25 09:28:20;;;;;;;47.58;27.80;;;;;;;8.53;100.00;102095.47;5057145;28;20036;-71
2021/03/25 09:31:04;;;;;;;47.17;26.10;;;;;;;8.42;100.00;102088.59;5056682;28;20524;-70
2021/03/25 09:33:48;;;;;;;53.25;28.38;;;;;;;8.43;100.00;102091.22;5056302;28;20115;-73
2021/03/25 09:36:16;;;;;;;47.85;28.13;;;;;;;8.50;100.00;102098.13;5055899;28;20044;-73
2021/03/25 09:38:43;;;;;;;54.75;28.52;;;;;;;8.48;100.00;102092.03;5057287;28;20724;-73
2021/03/25 09:41:24;;;;;;;55.00;28.60;;;;;;;8.41;100.00;102092.13;5055618;28;20696;-73
2021/03/25 09:43:52;;;;;;;62.97;32.55;;;;;;;8.49;100.00;102098.16;5056011;28;20078;-73
2021/03/25 09:46:30;;;;;;;55.63;30.95;;;;;;;8.49;100.00;102088.50;5054221;28;20050;-73
2021/03/25 09:48:57;;;;;;;57.25;29.88;;;;;;;8.57;100.00;102088.34;5059334;28;20032;-76
2021/03/25 09:51:29;;;;;;;72.97;34.38;;;;;;;8.60;100.00;102090.09;5052313;28;20059;-76
2021/03/25 09:53:59;;;;;;;65.90;31.90;;;;;;;8.63;100.00;102098.78;5042406;28;20028;-76
2021/03/25 09:56:24;;;;;;;69.97;33.65;;;;;;;8.58;100.00;102090.09;5059526;28;20094;-78
2021/03/25 09:58:51;;;;;;;67.57;33.63;;;;;;;8.50;100.00;102095.50;5058720;28;20657;-77
2021/03/25 10:01:43;;;;;;;66.78;33.88;;;;;;;8.50;100.00;102100.78;5060946;28;20032;-72
2021/03/25 10:04:34;;;;;;;68.60;31.58;;;;;;;8.46;100.00;102093.81;5056169;28;20025;-74
2021/03/25 10:07:23;;;;;;;70.43;33.30;;;;;;;8.50;100.00;102098.13;5054804;28;20115;-74
2021/03/25 10:09:49;;;;;;;65.32;32.65;;;;;;;8.57;100.00;102093.63;5057312;28;20036;-74
2021/03/25 10:12:45;;;;;;;71.57;32.50;;;;;;;8.69;100.00;102095.22;5055759;28;20524;-75
2021/03/25 10:15:34;;;;;;;71.22;33.17;;;;;;;8.69;100.00;102096.09;5059162;28;20056;-74
2021/03/25 10:18:11;;;;;;;70.28;34.13;;;;;;;8.65;100.00;102089.13;5018617;28;20781;-72
2021/03/25 10:20:57;;;;;;;81.07;34.10;;;;;;;8.61;100.00;102086.56;5041355;28;20123;-75
2021/03/25 10:23:28;;;;;;;64.32;30.80;;;;;;;8.62;100.00;102091.78;5048699;28;20063;-71
2021/03/25 10:26:07;;;;;;;72.55;35.08;;;;;;;8.57;100.00;102089.22;5030517;28;20124;-74
2021/03/25 10:28:40;;;;;;;74.45;34.33;;;;;;;8.56;100.00;102092.75;5051565;28;20386;-72
2021/03/25 10:31:22;;;;;;;76.03;33.28;;;;;;;8.67;100.00;102099.63;5051058;28;20374;-72
2021/03/25 10:33:49;;;;;;;66.20;32.85;;;;;;;8.73;100.00;102096.88;5051127;28;20082;-71
2021/03/25 10:36:18;;;;;;;60.65;31.38;;;;;;;8.94;100.00;102099.16;5055378;28;20040;-71
2021/03/25 10:38:48;;;;;;;72.30;32.08;;;;;;;9.11;100.00;102104.13;5055896;28;20025;-72
2021/03/25 10:41:24;;;;;;;67.03;32.90;;;;;;;9.08;100.00;102096.25;5040090;28;20033;-73
2021/03/25 10:43:50;;;;;;;55.17;30.23;;;;;;;9.20;100.00;102090.78;5053132;28;20033;-77
2021/03/25 10:46:37;;;;;;;51.55;28.08;;;;;;;9.71;100.00;102097.69;5055854;28;21406;-74
2021/03/25 10:49:06;;;;;;;52.45;27.00;;;;;;;10.23;100.00;102093.91;5053354;28;20541;-71
2021/03/25 10:51:52;;;;;;;46.55;25.17;;;;;;;10.75;100.00;102100.63;5038457;28;20025;-80
2021/03/25 10:54:36;;;;;;;47.95;25.27;;;;;;;10.18;100.00;102091.34;5035477;28;20032;-73
2021/03/25 10:57:22;;;;;;;45.13;25.25;;;;;;;10.02;100.00;102093.47;5042085;28;20178;-80
2021/03/25 10:59:53;;;;;;;46.50;22.08;;;;;;;9.99;100.00;102098.84;5039639;28;20064;-74
2021/03/25 11:02:23;;;;;;;48.97;25.40;;;;;;;9.93;100.00;102096.31;5032889;28;20041;-74
2021/03/25 11:05:03;;;;;;;38.65;23.92;;;;;;;9.95;100.00;102099.81;5034831;28;20041;-74
2021/03/25 11:07:29;;;;;;;47.58;23.00;;;;;;;10.18;100.00;102093.13;5031204;28;20037;-74
2021/03/25 11:10:01;;;;;;;42.95;22.25;;;;;;;10.46;100.00;102088.13;5033306;28;20512;-75
2021/03/25 11:12:30;;;;;;;43.28;24.13;;;;;;;10.38;100.00;102083.00;5016757;28;20111;-74
2021/03/25 11:14:59;;;;;;;38.67;22.27;;;;;;;10.10;100.00;102091.53;5020389;28;20530;-74
2021/03/25 11:17:30;;;;;;;40.47;23.48;;;;;;;9.92;100.00;102084.03;5032525;28;20132;-74
2021/03/25 11:20:06;;;;;;;40.33;23.20;;;;;;;10.08;100.00;102088.06;5028142;28;20029;-74
2021/03/25 11:22:33;;;;;;;45.45;24.80;;;;;;;10.03;100.00;102070.56;5030831;28;20107;-74
2021/03/25 11:25:05;;;;;;;42.65;24.27;;;;;;;10.06;100.00;102078.44;5029295;28;20848;-74
2021/03/25 11:27:31;;;;;;;42.72;22.40;;;;;;;10.17;100.00;102083.47;5032661;28;20043;-74
2021/03/25 11:30:31;;;;;;;42.40;24.02;;;;;;;10.89;100.00;102085.25;5029558;28;20037;-74
2021/03/25 11:32:56;;;;;;;47.33;25.48;;;;;;;10.90;100.00;102081.72;5030465;28;20044;-75
2021/03/25 11:35:41;;;;;;;45.97;26.65;;;;;;;10.44;100.00;102085.53;5031849;28;20043;-75
2021/03/25 11:38:24;;;;;;;47.30;26.52;;;;;;;12.13;100.00;102079.09;5022242;28;20036;-74
2021/03/25 11:40:53;;;;;;;34.80;22.63;;;;;;;14.95;100.00;102082.84;5034395;28;20393;-73
2021/03/25 11:43:22;;;;;;;35.55;21.80;;;;;;;16.55;100.00;102070.06;5028646;28;20076;-73